createdAt,value
2019-01-24T00:00:28.127Z,24.73
2019-01-24T00:02:56.377Z,24.53
2019-01-24T00:05:24.916Z,24.27
2019-01-24T00:07:54.202Z,24.40
2019-01-24T00:10:22.358Z,24.50
2019-01-24T00:12:50.853Z,24.47
2019-01-24T00:15:19.623Z,24.53
2019-01-24T00:17:48.151Z,26.07
2019-01-24T00:20:17.158Z,24.87
2019-01-24T00:22:45.771Z,24.50
2019-01-24T00:25:14.440Z,25.33
2019-01-24T00:27:43.028Z,25.40
2019-01-24T00:30:13.996Z,25.10
2019-01-24T00:32:43.721Z,25.77
2019-01-24T00:35:12.555Z,26.10
2019-01-24T00:37:41.177Z,23.73
2019-01-24T00:40:18.439Z,26.47
2019-01-24T00:42:47.314Z,26.00
2019-01-24T00:45:16.067Z,26.17
2019-01-24T00:47:44.632Z,25.60
2019-01-24T00:50:14.671Z,25.40
2019-01-24T00:52:43.412Z,26.03
2019-01-24T00:55:14.135Z,25.50
2019-01-24T00:57:42.871Z,24.40
2019-01-24T01:00:12.852Z,26.53
2019-01-24T01:02:41.657Z,25.13
2019-01-24T01:05:12.333Z,25.20
2019-01-24T01:07:40.963Z,25.40
2019-01-24T01:10:11.087Z,24.47
2019-01-24T01:12:39.583Z,24.53
2019-01-24T01:15:11.140Z,25.90
2019-01-24T01:17:39.664Z,26.37
2019-01-24T01:20:11.158Z,25.47
2019-01-24T01:22:39.728Z,27.30
2019-01-24T01:25:12.079Z,25.90
2019-01-24T01:27:40.721Z,26.30
2019-01-24T01:30:12.671Z,26.07
2019-01-24T01:32:41.372Z,25.27
2019-01-24T01:35:10.017Z,24.90
2019-01-24T01:37:38.499Z,24.00
2019-01-24T01:40:13.284Z,25.07
2019-01-24T01:42:41.756Z,26.03
2019-01-24T01:45:13.496Z,26.10
2019-01-24T01:47:42.310Z,26.37
2019-01-24T01:50:14.243Z,25.60
2019-01-24T01:52:42.785Z,26.43
2019-01-24T01:55:11.833Z,26.00
2019-01-24T01:57:40.415Z,24.73
2019-01-24T02:00:12.704Z,26.27
2019-01-24T02:02:41.219Z,27.03
2019-01-24T02:05:11.036Z,27.47
2019-01-24T02:07:39.604Z,25.93
2019-01-24T02:10:11.560Z,25.40
2019-01-24T02:12:40.046Z,25.70
2019-01-24T02:15:10.863Z,26.23
2019-01-24T02:17:39.342Z,26.10
2019-01-24T02:20:19.456Z,25.67
2019-01-24T02:22:47.772Z,25.60
2019-01-24T02:25:16.381Z,25.73
2019-01-24T02:27:45.414Z,26.53
2019-01-24T02:30:15.180Z,29.10
2019-01-24T02:32:43.310Z,27.93
2019-01-24T02:35:11.536Z,26.60
2019-01-24T02:37:39.737Z,29.27
2019-01-24T02:40:09.212Z,27.63
2019-01-24T02:42:37.697Z,29.57
2019-01-24T02:45:07.495Z,25.87
2019-01-24T02:47:36.106Z,27.93
2019-01-24T02:50:08.197Z,25.67
2019-01-24T02:52:36.696Z,27.10
2019-01-24T02:55:06.699Z,27.07
2019-01-24T02:57:35.196Z,25.80
2019-01-24T03:00:04.961Z,25.87
2019-01-24T03:02:33.459Z,25.70
2019-01-24T03:05:01.933Z,27.47
2019-01-24T03:07:30.092Z,26.33
2019-01-24T03:09:59.424Z,25.00
2019-01-24T03:12:27.666Z,25.47
2019-01-24T03:14:56.091Z,24.60
2019-01-24T03:17:25.244Z,23.67
2019-01-24T03:19:53.412Z,23.77
2019-01-24T03:22:21.964Z,26.83
2019-01-24T03:24:50.818Z,24.43
2019-01-24T03:27:19.352Z,24.53
2019-01-24T03:29:47.518Z,24.30
2019-01-24T03:32:15.983Z,25.13
2019-01-24T03:34:44.617Z,24.67
2019-01-24T03:37:14.384Z,23.93
2019-01-24T03:39:42.900Z,26.00
2019-01-24T03:42:12.283Z,24.93
2019-01-24T03:44:40.641Z,25.63
2019-01-24T03:47:09.167Z,25.27
2019-01-24T03:49:37.645Z,24.97
2019-01-24T03:52:06.194Z,24.03
2019-01-24T03:54:34.688Z,23.47
2019-01-24T03:57:03.161Z,25.37
2019-01-24T03:59:31.614Z,24.70
2019-01-24T04:02:00.416Z,24.83
2019-01-24T04:04:28.896Z,26.73
2019-01-24T04:06:57.386Z,24.17
2019-01-24T04:09:25.886Z,25.80
2019-01-24T04:11:54.478Z,26.27
2019-01-24T04:14:22.942Z,23.50
2019-01-24T04:16:51.403Z,23.80
2019-01-24T04:19:19.901Z,25.07
2019-01-24T04:21:48.366Z,25.03
2019-01-24T04:24:16.871Z,24.10
2019-01-24T04:26:45.425Z,25.50
2019-01-24T04:29:13.560Z,25.40
2019-01-24T04:31:42.244Z,24.23
2019-01-24T04:34:11.855Z,24.30
2019-01-24T04:36:40.349Z,24.03
2019-01-24T04:39:08.858Z,26.23
2019-01-24T04:41:37.323Z,26.93
2019-01-24T04:44:05.932Z,25.37
2019-01-24T04:46:34.698Z,26.43
2019-01-24T04:49:03.187Z,25.33
2019-01-24T04:51:31.762Z,25.50
2019-01-24T04:54:00.231Z,25.97
2019-01-24T04:56:28.717Z,23.67
2019-01-24T04:58:57.197Z,25.30
2019-01-24T05:01:25.947Z,25.83
2019-01-24T05:03:54.434Z,24.23
2019-01-24T05:06:22.922Z,24.70
2019-01-24T05:08:51.409Z,25.27
2019-01-24T05:11:19.903Z,24.80
2019-01-24T05:13:48.403Z,23.57
2019-01-24T05:16:17.106Z,24.83
2019-01-24T05:18:45.726Z,25.00
2019-01-24T05:21:14.206Z,23.83
2019-01-24T05:23:42.701Z,25.37
2019-01-24T05:26:11.182Z,24.83
2019-01-24T05:28:39.681Z,25.23
2019-01-24T05:31:08.070Z,24.27
2019-01-24T05:33:36.818Z,25.47
2019-01-24T05:36:05.408Z,24.30
2019-01-24T05:38:33.970Z,24.63
2019-01-24T05:41:02.437Z,26.20
2019-01-24T05:43:30.954Z,25.77
2019-01-24T05:45:59.747Z,25.77
2019-01-24T05:48:28.224Z,27.17
2019-01-24T05:50:56.725Z,25.57
2019-01-24T05:53:25.208Z,26.20
2019-01-24T05:55:53.712Z,24.63
2019-01-24T05:58:22.201Z,25.47
2019-01-24T06:00:51.139Z,24.93
2019-01-24T06:03:19.611Z,26.30
2019-01-24T06:05:48.092Z,26.63
2019-01-24T06:08:16.587Z,25.10
2019-01-24T06:10:45.144Z,26.63
2019-01-24T06:13:13.708Z,25.43
2019-01-24T06:15:42.173Z,27.13
2019-01-24T06:18:10.670Z,25.50
2019-01-24T06:20:39.407Z,25.23
2019-01-24T06:23:08.286Z,25.77
2019-01-24T06:25:36.751Z,26.63
2019-01-24T06:28:05.395Z,27.23
2019-01-24T06:30:33.901Z,26.27
2019-01-24T06:33:02.467Z,27.27
2019-01-24T06:35:31.327Z,26.83
2019-01-24T06:38:00.188Z,26.93
2019-01-24T06:40:28.703Z,26.77
2019-01-24T06:42:57.238Z,25.47
2019-01-24T06:45:25.745Z,25.40
2019-01-24T06:47:54.250Z,27.27
2019-01-24T06:50:22.880Z,25.70
2019-01-24T06:52:51.446Z,26.73
2019-01-24T06:55:29.479Z,29.50
2019-01-24T06:57:58.040Z,29.63
2019-01-24T07:00:26.639Z,28.87
2019-01-24T07:02:55.231Z,29.87
2019-01-24T07:05:23.804Z,30.30
2019-01-24T07:07:52.381Z,29.40
2019-01-24T07:10:22.815Z,29.73
2019-01-24T07:12:51.372Z,27.77
2019-01-24T07:15:21.814Z,27.90
2019-01-24T07:17:50.671Z,27.47
2019-01-24T07:20:20.776Z,25.50
2019-01-24T07:22:49.395Z,29.67
2019-01-24T07:25:20.409Z,28.63
2019-01-24T07:27:48.895Z,27.67
2019-01-24T07:30:19.623Z,27.13
2019-01-24T07:32:48.842Z,27.50
2019-01-24T07:35:18.553Z,28.53
2019-01-24T07:37:47.363Z,28.77
2019-01-24T07:40:17.412Z,28.00
2019-01-24T07:42:45.997Z,27.90
2019-01-24T07:45:29.412Z,29.50
2019-01-24T07:47:57.895Z,27.47
2019-01-24T07:50:26.446Z,28.07
2019-01-24T07:52:55.026Z,27.57
2019-01-24T07:55:23.495Z,28.93
2019-01-24T07:57:52.013Z,27.50
2019-01-24T08:00:25.782Z,29.67
2019-01-24T08:02:54.538Z,30.00
2019-01-24T08:05:24.438Z,26.83
2019-01-24T08:07:53.330Z,27.93
2019-01-24T08:10:23.306Z,26.17
2019-01-24T08:12:52.367Z,27.40
2019-01-24T08:15:22.183Z,29.80
2019-01-24T08:17:50.980Z,27.63
2019-01-24T08:20:22.107Z,28.23
2019-01-24T08:22:50.704Z,27.20
2019-01-24T08:25:19.349Z,26.67
2019-01-24T08:27:47.973Z,27.67
2019-01-24T08:30:27.720Z,29.27
2019-01-24T08:32:56.264Z,29.03
2019-01-24T08:35:24.880Z,27.43
2019-01-24T08:37:53.631Z,30.37
2019-01-24T08:40:23.452Z,27.00
2019-01-24T08:42:52.393Z,28.20
2019-01-24T08:45:21.108Z,31.03
2019-01-24T08:47:49.597Z,28.67
2019-01-24T08:50:20.126Z,28.37
2019-01-24T08:52:49.772Z,30.07
2019-01-24T08:55:36.163Z,28.63
2019-01-24T08:58:05.606Z,29.43
2019-01-24T09:00:34.124Z,30.30
2019-01-24T09:03:03.218Z,30.03
2019-01-24T09:05:31.803Z,28.10
2019-01-24T09:08:00.274Z,30.90
2019-01-24T09:10:34.159Z,30.43
2019-01-24T09:13:02.837Z,35.47
2019-01-24T09:15:31.145Z,36.63
2019-01-24T09:17:59.766Z,34.30
2019-01-24T09:20:28.349Z,34.30
2019-01-24T09:22:56.951Z,34.53
2019-01-24T09:25:25.801Z,31.90
2019-01-24T09:27:54.337Z,31.77
2019-01-24T09:30:27.691Z,31.47
2019-01-24T09:32:56.563Z,31.10
2019-01-24T09:35:25.375Z,32.27
2019-01-24T09:37:54.029Z,31.07
2019-01-24T09:40:23.516Z,32.27
2019-01-24T09:42:52.100Z,30.00
2019-01-24T09:45:27.782Z,30.87
2019-01-24T09:47:58.337Z,32.40
2019-01-24T09:50:27.886Z,35.80
2019-01-24T09:52:56.607Z,35.37
2019-01-24T09:55:25.371Z,31.17
2019-01-24T09:57:53.910Z,34.17
2019-01-24T10:00:30.964Z,35.60
2019-01-24T10:02:59.598Z,33.23
2019-01-24T10:05:28.173Z,32.37
2019-01-24T10:07:56.788Z,31.87
2019-01-24T10:10:27.285Z,33.43
2019-01-24T10:12:56.645Z,32.50
2019-01-24T10:15:25.326Z,31.73
2019-01-24T10:17:55.022Z,30.77
2019-01-24T10:20:26.014Z,32.07
2019-01-24T10:22:54.751Z,32.80
2019-01-24T10:25:31.718Z,34.50
2019-01-24T10:28:00.227Z,34.60
2019-01-24T10:30:28.945Z,34.00
2019-01-24T10:32:57.532Z,33.43
2019-01-24T10:35:26.193Z,33.10
2019-01-24T10:37:54.722Z,37.33
2019-01-24T10:40:27.102Z,33.57
2019-01-24T10:42:56.111Z,34.27
2019-01-24T10:45:24.730Z,32.73
2019-01-24T10:47:54.413Z,32.83
2019-01-24T10:50:25.046Z,39.27
2019-01-24T10:52:55.403Z,35.63
2019-01-24T10:55:28.209Z,38.30
2019-01-24T10:57:58.756Z,33.87
2019-01-24T11:00:31.335Z,32.40
2019-01-24T11:03:00.157Z,32.70
2019-01-24T11:05:28.429Z,35.10
2019-01-24T11:07:57.583Z,42.17
2019-01-24T11:10:26.064Z,34.70
2019-01-24T11:12:54.569Z,33.83
2019-01-24T11:15:26.212Z,33.53
2019-01-24T11:17:54.790Z,31.67
2019-01-24T11:20:23.371Z,32.20
2019-01-24T11:22:51.921Z,32.97
2019-01-24T11:25:26.723Z,29.97
2019-01-24T11:27:55.442Z,31.07
2019-01-24T11:30:29.058Z,31.43
2019-01-24T11:32:57.620Z,31.27
2019-01-24T11:35:34.075Z,29.47
2019-01-24T11:38:02.655Z,32.97
2019-01-24T11:40:31.229Z,30.83
2019-01-24T11:42:59.804Z,37.10
2019-01-24T11:45:31.227Z,34.37
2019-01-24T11:47:59.994Z,34.70
2019-01-24T11:50:28.460Z,35.17
2019-01-24T11:52:56.930Z,34.47
2019-01-24T11:55:25.429Z,33.20
2019-01-24T11:57:53.977Z,34.77
2019-01-24T12:00:32.704Z,35.20
2019-01-24T12:03:01.329Z,38.23
2019-01-24T12:05:29.889Z,38.70
2019-01-24T12:07:58.364Z,35.60
2019-01-24T12:10:28.404Z,39.20
2019-01-24T12:12:56.885Z,36.37
2019-01-24T12:15:28.186Z,39.47
2019-01-24T12:17:56.692Z,37.50
2019-01-24T12:20:26.218Z,40.93
2019-01-24T12:22:55.146Z,38.80
2019-01-24T12:25:23.824Z,36.37
2019-01-24T12:27:52.422Z,36.53
2019-01-24T12:30:26.304Z,36.47
2019-01-24T12:32:54.924Z,36.37
2019-01-24T12:35:23.469Z,36.93
2019-01-24T12:37:53.427Z,35.83
2019-01-24T12:40:22.241Z,31.97
2019-01-24T12:42:51.201Z,34.13
2019-01-24T12:45:22.777Z,36.10
2019-01-24T12:47:51.422Z,35.77
2019-01-24T12:50:20.848Z,43.57
2019-01-24T12:52:51.599Z,37.77
2019-01-24T12:55:20.247Z,36.80
2019-01-24T12:57:48.908Z,37.30
2019-01-24T13:00:23.205Z,38.03
2019-01-24T13:02:51.745Z,36.67
2019-01-24T13:05:20.293Z,36.87
2019-01-24T13:07:49.523Z,33.73
2019-01-24T13:10:20.884Z,33.77
2019-01-24T13:12:49.854Z,31.37
2019-01-24T13:15:27.216Z,30.70
2019-01-24T13:17:56.039Z,31.47
2019-01-24T13:20:24.527Z,34.13
2019-01-24T13:22:53.116Z,33.13
2019-01-24T13:25:27.924Z,33.03
2019-01-24T13:27:56.471Z,31.20
2019-01-24T13:30:27.083Z,31.87
2019-01-24T13:32:55.649Z,30.77
2019-01-24T13:35:24.680Z,29.90
2019-01-24T13:37:53.308Z,30.77
2019-01-24T13:40:24.431Z,30.63
2019-01-24T13:42:53.443Z,29.33
2019-01-24T13:45:24.469Z,29.73
2019-01-24T13:47:53.207Z,29.60
2019-01-24T13:50:21.905Z,29.27
2019-01-24T13:52:50.645Z,30.07
2019-01-24T13:55:19.276Z,30.63
2019-01-24T13:57:48.046Z,28.80
2019-01-24T14:00:19.509Z,34.50
2019-01-24T14:02:50.853Z,34.13
2019-01-24T14:05:19.888Z,32.40
2019-01-24T14:07:48.423Z,33.00
2019-01-24T14:10:18.358Z,33.83
2019-01-24T14:12:47.039Z,33.03
2019-01-24T14:15:18.103Z,33.70
2019-01-24T14:17:46.793Z,32.70
2019-01-24T14:20:22.022Z,33.10
2019-01-24T14:22:50.854Z,31.97
2019-01-24T14:25:20.971Z,31.53
2019-01-24T14:27:49.703Z,31.73
2019-01-24T14:30:26.032Z,30.90
2019-01-24T14:32:55.063Z,31.50
2019-01-24T14:35:23.773Z,32.00
2019-01-24T14:37:52.625Z,32.00
2019-01-24T14:40:21.288Z,31.20
2019-01-24T14:42:49.966Z,31.77
2019-01-24T14:45:27.357Z,30.10
2019-01-24T14:47:56.353Z,29.37
2019-01-24T14:50:28.008Z,29.20
2019-01-24T14:52:56.978Z,27.73
2019-01-24T14:55:25.607Z,30.10
2019-01-24T14:57:54.224Z,30.50
2019-01-24T15:00:25.812Z,29.30
2019-01-24T15:02:54.362Z,27.77
2019-01-24T15:05:22.998Z,28.67
2019-01-24T15:07:51.537Z,29.10
2019-01-24T15:10:20.266Z,29.63
2019-01-24T15:12:48.835Z,30.87
2019-01-24T15:15:19.368Z,30.40
2019-01-24T15:17:47.943Z,30.90
2019-01-24T15:20:18.059Z,31.30
2019-01-24T15:22:46.782Z,30.10
2019-01-24T15:25:20.409Z,28.63
2019-01-24T15:27:49.095Z,28.37
2019-01-24T15:30:23.226Z,28.03
2019-01-24T15:32:51.762Z,27.17
2019-01-24T15:35:20.487Z,27.83
2019-01-24T15:37:54.317Z,26.87
2019-01-24T15:40:27.965Z,29.40
2019-01-24T15:42:56.500Z,28.53
2019-01-24T15:45:25.149Z,29.63
2019-01-24T15:47:53.646Z,28.77
2019-01-24T15:50:23.483Z,27.37
2019-01-24T15:52:52.500Z,28.07
2019-01-24T15:55:21.143Z,28.03
2019-01-24T15:57:49.616Z,27.30
2019-01-24T16:00:29.999Z,28.63
2019-01-24T16:02:58.706Z,28.40
2019-01-24T16:05:27.322Z,29.77
2019-01-24T16:08:01.564Z,29.13
2019-01-24T16:10:26.305Z,29.47
2019-01-24T16:12:54.938Z,28.23
2019-01-24T16:15:36.825Z,30.87
2019-01-24T16:18:07.905Z,29.27
2019-01-24T16:20:36.421Z,28.93
2019-01-24T16:23:06.189Z,27.83
2019-01-24T16:25:35.240Z,28.97
2019-01-24T16:28:03.880Z,27.80
2019-01-24T16:30:34.298Z,27.77
2019-01-24T16:33:04.630Z,31.93
2019-01-24T16:35:33.139Z,29.77
2019-01-24T16:38:09.024Z,28.37
2019-01-24T16:40:32.382Z,28.53
2019-01-24T16:43:01.097Z,29.97
2019-01-24T16:45:30.311Z,30.70
2019-01-24T16:47:59.011Z,30.37
2019-01-24T16:50:28.117Z,37.50
2019-01-24T16:52:56.937Z,33.63
2019-01-24T16:55:25.502Z,33.67
2019-01-24T16:57:54.776Z,30.73
2019-01-24T17:00:32.862Z,29.97
2019-01-24T17:03:01.476Z,28.90
2019-01-24T17:05:30.434Z,29.97
2019-01-24T17:07:59.078Z,26.90
2019-01-24T17:10:29.038Z,27.63
2019-01-24T17:12:58.022Z,27.97
2019-01-24T17:15:26.734Z,27.57
2019-01-24T17:17:55.349Z,27.77
2019-01-24T17:20:26.569Z,28.83
2019-01-24T17:22:55.415Z,29.33
2019-01-24T17:25:25.857Z,29.43
2019-01-24T17:27:54.415Z,29.57
2019-01-24T17:30:25.786Z,29.50
2019-01-24T17:32:54.410Z,28.20
2019-01-24T17:35:23.298Z,27.27
2019-01-24T17:37:51.994Z,29.87
2019-01-24T17:40:23.200Z,29.43
2019-01-24T17:42:51.783Z,29.20
2019-01-24T17:45:21.184Z,30.37
2019-01-24T17:47:51.217Z,28.60
2019-01-24T17:50:19.855Z,30.37
2019-01-24T17:52:48.884Z,31.20
2019-01-24T17:55:23.604Z,30.83
2019-01-24T17:57:52.189Z,30.00
2019-01-24T18:00:22.781Z,29.73
2019-01-24T18:02:51.342Z,31.53
2019-01-24T18:05:20.198Z,30.93
2019-01-24T18:07:48.959Z,32.50
2019-01-24T18:10:22.808Z,32.93
2019-01-24T18:12:51.424Z,33.10
2019-01-24T18:15:24.891Z,31.93
2019-01-24T18:17:53.432Z,31.10
2019-01-24T18:20:24.604Z,32.50
2019-01-24T18:22:53.231Z,32.10
2019-01-24T18:25:22.146Z,32.80
2019-01-24T18:27:50.758Z,33.30
2019-01-24T18:30:25.826Z,31.97
2019-01-24T18:32:54.801Z,31.57
2019-01-24T18:35:23.731Z,32.13
2019-01-24T18:37:52.286Z,32.00
2019-01-24T18:40:22.932Z,32.57
2019-01-24T18:42:51.965Z,33.20
2019-01-24T18:45:26.339Z,33.10
2019-01-24T18:47:55.317Z,31.33
2019-01-24T18:50:23.935Z,31.23
2019-01-24T18:52:52.583Z,32.47
2019-01-24T18:55:21.066Z,34.17
2019-01-24T18:57:49.554Z,30.73
2019-01-24T19:00:22.189Z,32.60
2019-01-24T19:02:50.694Z,32.33
2019-01-24T19:05:19.485Z,34.17
2019-01-24T19:07:47.947Z,35.70
2019-01-24T19:10:16.953Z,37.03
2019-01-24T19:12:45.478Z,35.70
2019-01-24T19:15:17.565Z,36.93
2019-01-24T19:17:46.995Z,39.13
2019-01-24T19:20:16.632Z,40.23
2019-01-24T19:22:45.254Z,37.93
2019-01-24T19:25:15.871Z,37.10
2019-01-24T19:27:44.442Z,37.33
2019-01-24T19:30:31.034Z,35.90
2019-01-24T19:33:00.127Z,38.67
2019-01-24T19:35:28.760Z,39.27
2019-01-24T19:37:57.276Z,39.40
2019-01-24T19:40:30.237Z,37.63
2019-01-24T19:42:58.860Z,37.60
2019-01-24T19:45:27.995Z,37.17
2019-01-24T19:47:56.656Z,38.03
2019-01-24T19:50:27.595Z,35.80
2019-01-24T19:52:56.238Z,37.03
2019-01-24T19:55:24.729Z,40.43
2019-01-24T19:57:54.233Z,39.77
2019-01-24T20:00:27.819Z,38.63
2019-01-24T20:02:56.659Z,36.40
2019-01-24T20:05:25.784Z,38.73
2019-01-24T20:07:54.441Z,39.57
2019-01-24T20:10:27.976Z,37.40
2019-01-24T20:12:56.698Z,38.60
2019-01-24T20:15:30.377Z,39.50
2019-01-24T20:17:59.139Z,40.03
2019-01-24T20:20:28.669Z,39.07
2019-01-24T20:22:57.244Z,39.27
2019-01-24T20:25:30.974Z,37.27
2019-01-24T20:27:59.448Z,37.53
2019-01-24T20:30:29.169Z,37.60
2019-01-24T20:32:58.070Z,36.90
2019-01-24T20:35:32.335Z,36.23
2019-01-24T20:38:00.827Z,34.87
2019-01-24T20:40:29.471Z,37.27
2019-01-24T20:42:58.101Z,41.53
2019-01-24T20:45:26.749Z,38.53
2019-01-24T20:47:55.410Z,37.17
2019-01-24T20:50:23.927Z,38.40
2019-01-24T20:52:53.086Z,40.87
2019-01-24T20:55:21.758Z,42.67
2019-01-24T20:57:50.331Z,41.73
2019-01-24T21:00:24.741Z,42.07
2019-01-24T21:02:54.320Z,45.30
2019-01-24T21:05:24.023Z,39.40
2019-01-24T21:07:52.662Z,38.00
2019-01-24T21:10:26.102Z,39.90
2019-01-24T21:12:54.677Z,39.07
2019-01-24T21:15:23.217Z,38.03
2019-01-24T21:17:51.716Z,39.47
2019-01-24T21:20:25.452Z,36.43
2019-01-24T21:22:53.953Z,38.50
2019-01-24T21:25:24.310Z,36.07
2019-01-24T21:27:53.076Z,36.30
2019-01-24T21:30:24.611Z,35.43
2019-01-24T21:32:53.654Z,34.03
2019-01-24T21:35:22.436Z,33.90
2019-01-24T21:37:51.224Z,36.73
2019-01-24T21:40:21.674Z,33.90
2019-01-24T21:42:50.155Z,33.67
2019-01-24T21:45:22.068Z,35.27
2019-01-24T21:47:51.011Z,33.53
2019-01-24T21:50:22.200Z,32.47
2019-01-24T21:52:50.743Z,35.40
2019-01-24T21:55:20.327Z,34.63
2019-01-24T21:57:48.935Z,34.83
2019-01-24T22:00:26.294Z,35.53
2019-01-24T22:02:54.878Z,34.17
2019-01-24T22:05:23.893Z,36.00
2019-01-24T22:07:52.531Z,34.40
2019-01-24T22:10:23.618Z,35.47
2019-01-24T22:12:52.314Z,33.23
2019-01-24T22:15:29.061Z,34.97
2019-01-24T22:17:58.616Z,35.47
2019-01-24T22:20:28.592Z,36.93
2019-01-24T22:22:58.225Z,36.40
2019-01-24T22:25:31.783Z,37.03
2019-01-24T22:28:00.439Z,35.70
2019-01-24T22:30:36.464Z,34.67
2019-01-24T22:33:05.984Z,36.47
2019-01-24T22:35:35.748Z,35.03
2019-01-24T22:38:05.169Z,34.40
2019-01-24T22:40:33.682Z,34.87
2019-01-24T22:43:02.162Z,35.67
2019-01-24T22:45:30.692Z,34.77
2019-01-24T22:48:00.325Z,33.77
2019-01-24T22:50:28.860Z,35.37
2019-01-24T22:52:57.605Z,34.63
2019-01-24T22:55:26.948Z,34.80
2019-01-24T22:57:56.322Z,36.07
2019-01-24T23:00:47.664Z,33.17
2019-01-24T23:03:19.247Z,33.90
2019-01-24T23:05:47.790Z,33.10
2019-01-24T23:08:16.594Z,33.23
2019-01-24T23:10:45.156Z,32.53
2019-01-24T23:13:13.848Z,31.90
2019-01-24T23:15:42.471Z,33.17
2019-01-24T23:18:11.063Z,32.93
2019-01-24T23:20:39.557Z,32.07
2019-01-24T23:23:08.033Z,33.33
2019-01-24T23:25:36.550Z,31.53
2019-01-24T23:28:05.165Z,33.00
2019-01-24T23:30:34.369Z,33.20
2019-01-24T23:33:03.945Z,33.70
2019-01-24T23:35:32.568Z,34.03
2019-01-24T23:38:01.066Z,32.00
2019-01-24T23:40:29.627Z,33.27
2019-01-24T23:42:58.112Z,31.67
2019-01-24T23:45:26.786Z,31.63
2019-01-24T23:47:55.617Z,30.27
2019-01-24T23:50:24.179Z,29.67
2019-01-24T23:52:52.766Z,29.60
2019-01-24T23:55:21.231Z,29.70
2019-01-24T23:57:49.788Z,29.97
